Portada
METAR-TAF:

METAR-TAF

Aeropuertos :

Aeropuerto Internacional de Yap

Yap, Micronesia

latitud: 09-29N, longitud: 138-05E, altitud: 28 m

Observación

El informe se hizo hace 1 hora y 18 minutos, a las 08:50 UTC
Viento 7 kt del sureste
Temperatura 28°C
Humedad 89%
Presión 1009 hPa
Visibilidad: 19.3 km
Escasas nubes a una altura de 1700 ft
Cielo nuboso a una altura de 30000 ft

METAR: PTYA 190850Z 13007KT 12SM FEW017 BKN300 28/26 A2980 RMK SLP093 8/101 T02840259 53008

Hora: 20:08 (10:08 UTC)

Pronóstico

El informe se hizo hace 4 horas y 47 minutos, a las 05:21 UTC
Pronóstico válido del 19 a las 06 UTC al 20 a las 06 UTC
Viento 7 kt del este-sureste
Visibilidad: 10 km
Nubes dispersas a una altura de 1700 ft
Nubes dispersas a una altura de 3000 ft
chaparrones en las proximidades

TAF: PTYA 190521Z 1906/2006 12007KT P6SM VCSH SCT017 SCT030

Observaciones y pronósticos meteorológicos de más de 4000 aeropuertos (mensajes METAR y TAF).

Los puntos amarillos y rojos representan las estaciones disponibles.

Ponga el ratón en el punto deseado para ver el nombre de la estación.

Haga clic para ver las observaciones y los pronósticos meteorológicos.

Para cambiar el mapa : haga clic en los botones verdes con una cruz de color negro para hacer un zoom, en el botón verde con un guión para alejar o en las flechas verdes para mapas adyacentes.


METAR-TAF: